Time;durP1;ratioP1;P1;durP2;ratioP2;P2;SDS_P1;SDS_P2;PMS_P1;PMS_P2;Temp;Humidity;BMP_temperature;BMP_pressure;BME280_temperature;BME280_humidity;BME280_pressure;Samples;Min_cycle;Max_cycle;Signal;HPM_P1;HPM_P2
2023/05/06 00:02:25;;;;;;;;;;;;;;;7.54;83.63;101824.09;5043549;28;19953;-77
2023/05/06 00:04:50;;;;;;;;;;;;;;;7.51;83.69;101829.84;5041475;28;19963;-79
2023/05/06 00:07:16;;;;;;;;;;;;;;;7.53;82.88;101817.16;5037997;28;19999;-79
2023/05/06 00:09:42;;;;;;;;;;;;;;;7.58;83.83;101818.06;5028059;28;20325;-76
2023/05/06 00:12:08;;;;;;;;;;;;;;;7.55;83.42;101804.41;5019415;28;19932;-79
2023/05/06 00:14:34;;;;;;;;;;;;;;;7.56;83.66;101798.84;5046901;28;19933;-76
2023/05/06 00:16:59;;;;;;;;;;;;;;;7.54;83.48;101819.56;5034971;28;19972;-78
2023/05/06 00:19:25;;;;;;;;;;;;;;;7.57;83.72;101811.13;5039489;28;19951;-78
2023/05/06 00:21:50;;;;;;;;;;;;;;;7.60;83.54;101807.22;5033513;28;20313;-77
2023/05/06 00:24:16;;;;;;;;;;;;;;;7.65;83.17;101799.34;5037797;28;19939;-78
2023/05/06 00:26:41;;;;;;;;;;;;;;;7.53;83.81;101807.28;5055969;28;19973;-78
2023/05/06 00:29:07;;;;;;;;;;;;;;;7.50;84.14;101807.72;5036294;28;19958;-77
2023/05/06 00:31:33;;;;;;;;;;;;;;;7.57;83.66;101796.97;5020074;28;20025;-78
2023/05/06 00:33:59;;;;;;;;;;;;;;;7.61;83.65;101800.84;5040072;28;19982;-77
2023/05/06 00:36:24;;;;;;;;;;;;;;;7.63;83.94;101804.09;5016962;28;20487;-78
2023/05/06 00:38:50;;;;;;;;;;;;;;;7.57;84.44;101796.97;5044337;28;19946;-77
2023/05/06 00:41:16;;;;;;;;;;;;;;;7.56;84.31;101800.69;5033583;28;19955;-78
2023/05/06 00:43:42;;;;;;;;;;;;;;;7.56;84.66;101800.69;5032755;28;19940;-79
2023/05/06 00:46:08;;;;;;;;;;;;;;;7.58;84.23;101806.59;5033297;28;20022;-78
2023/05/06 00:48:34;;;;;;;;;;;;;;;7.56;85.35;101806.84;5040600;28;20521;-78
2023/05/06 00:51:00;;;;;;;;;;;;;;;7.61;85.54;101801.66;5052240;28;19999;-78
2023/05/06 00:53:26;;;;;;;;;;;;;;;7.56;84.92;101806.03;5041197;28;19940;-77
2023/05/06 00:55:51;;;;;;;;;;;;;;;7.59;85.45;101794.94;5022497;28;19947;-78
2023/05/06 00:58:18;;;;;;;;;;;;;;;7.65;84.77;101800.19;5032053;28;20434;-78
2023/05/06 01:00:44;;;;;;;;;;;;;;;7.70;84.58;101801.34;5033427;28;19956;-78
2023/05/06 01:03:10;;;;;;;;;;;;;;;7.71;85.06;101798.44;5031958;28;20324;-78
2023/05/06 01:05:47;;;;;;;;;;;;;;;7.70;84.85;101794.16;5050840;28;19932;-77
2023/05/06 01:08:34;;;;;;;;;;;;;;;7.72;85.06;101791.25;5042450;28;19955;-77
2023/05/06 01:11:20;;;;;;;;;;;;;;;7.73;85.48;101784.91;5033125;28;19961;-78
2023/05/06 01:13:49;;;;;;;;;;;;;;;7.72;85.03;101789.41;5040875;28;19940;-77
2023/05/06 01:16:16;;;;;;;;;;;;;;;7.62;86.34;101797.94;5047710;28;19935;-78
2023/05/06 01:18:43;;;;;;;;;;;;;;;7.65;85.95;101794.00;5037421;28;19956;-78
2023/05/06 01:21:11;;;;;;;;;;;;;;;7.63;86.86;101791.56;5033760;28;19947;-78
2023/05/06 01:23:50;;;;;;;;;;;;;;;7.59;86.74;101792.25;5034648;28;20590;-77
2023/05/06 01:26:16;;;;;;;;;;;;;;;7.55;86.46;101783.88;5033137;28;19978;-77
2023/05/06 01:28:42;;;;;;;;;;;;;;;7.62;87.19;101794.47;5032819;28;19950;-78
2023/05/06 01:31:10;;;;;;;;;;;;;;;7.70;86.08;101786.16;5032971;28;19939;-79
2023/05/06 01:33:49;;;;;;;;;;;;;;;7.58;86.58;101793.28;5023715;28;19963;-78
2023/05/06 01:36:20;;;;;;;;;;;;;;;7.61;86.69;101788.31;5032072;28;20038;-78
2023/05/06 01:38:46;;;;;;;;;;;;;;;7.57;87.15;101792.47;5032075;28;20053;-78
2023/05/06 01:41:14;;;;;;;;;;;;;;;7.55;86.96;101797.22;5033266;28;19976;-78
2023/05/06 01:43:41;;;;;;;;;;;;;;;7.58;87.32;101798.59;5026850;28;19938;-77
2023/05/06 01:46:11;;;;;;;;;;;;;;;7.63;86.68;101796.91;5030765;28;20032;-79
2023/05/06 01:48:37;;;;;;;;;;;;;;;7.63;87.02;101807.56;5033341;28;19951;-77
2023/05/06 01:51:03;;;;;;;;;;;;;;;7.57;87.90;101802.31;5035905;28;19933;-78
2023/05/06 01:53:30;;;;;;;;;;;;;;;7.63;87.18;101807.56;5034508;28;19939;-78
2023/05/06 01:55:56;;;;;;;;;;;;;;;7.69;87.06;101805.06;5028795;28;19939;-77
2023/05/06 01:58:21;;;;;;;;;;;;;;;7.58;87.85;101807.41;5011191;28;19954;-78
2023/05/06 02:00:47;;;;;;;;;;;;;;;7.63;86.82;101804.91;5036116;28;20368;-78
2023/05/06 02:03:12;;;;;;;;;;;;;;;7.64;87.27;101811.03;5033938;28;19958;-77
2023/05/06 02:05:38;;;;;;;;;;;;;;;7.60;87.39;101804.56;5016998;28;20475;-78
2023/05/06 02:08:04;;;;;;;;;;;;;;;7.64;88.09;101808.38;5045931;28;19943;-78
2023/05/06 02:10:29;;;;;;;;;;;;;;;7.56;88.06;101812.16;5032468;28;19931;-78
2023/05/06 02:13:02;;;;;;;;;;;;;;;7.60;88.01;101808.03;5002218;28;19954;-79
2023/05/06 02:15:28;;;;;;;;;;;;;;;7.53;88.24;101814.47;5032513;28;19963;-77
2023/05/06 02:17:55;;;;;;;;;;;;;;;7.51;89.04;101812.00;5035147;28;20047;-78
2023/05/06 02:20:22;;;;;;;;;;;;;;;7.48;89.25;101809.81;5037114;28;20372;-79
2023/05/06 02:22:47;;;;;;;;;;;;;;;7.49;89.36;101811.44;5052201;28;19939;-77
2023/05/06 02:25:12;;;;;;;;;;;;;;;7.49;89.11;101815.94;5047521;28;19931;-78
2023/05/06 02:27:38;;;;;;;;;;;;;;;7.48;89.28;101804.47;5035058;28;19940;-77
2023/05/06 02:30:05;;;;;;;;;;;;;;;7.48;89.60;101812.47;5038011;28;19928;-78
2023/05/06 02:32:31;;;;;;;;;;;;;;;7.45;89.92;101809.41;5022063;28;19928;-79
2023/05/06 02:34:56;;;;;;;;;;;;;;;7.49;89.42;101816.75;5039274;28;19936;-78
2023/05/06 02:37:22;;;;;;;;;;;;;;;7.49;89.48;101813.28;5035782;28;20498;-79
2023/05/06 02:39:48;;;;;;;;;;;;;;;7.47;89.91;101813.50;5018879;28;20084;-77
2023/05/06 02:42:14;;;;;;;;;;;;;;;7.44;89.23;101807.78;5004717;28;20050;-77
2023/05/06 02:44:40;;;;;;;;;;;;;;;7.43;89.84;101804.31;5028107;28;19934;-78
2023/05/06 02:47:27;;;;;;;;;;;;;;;7.44;90.17;101805.13;5034572;28;20066;-78
2023/05/06 02:49:52;;;;;;;;;;;;;;;7.43;89.99;101801.66;5030521;28;19929;-78
2023/05/06 02:52:18;;;;;;;;;;;;;;;7.35;89.96;101802.78;5015701;28;19941;-78
2023/05/06 02:54:43;;;;;;;;;;;;;;;7.39;90.14;101803.97;5029771;28;19954;-78
2023/05/06 02:57:09;;;;;;;;;;;;;;;7.36;90.44;101800.91;5031354;28;20021;-76
2023/05/06 02:59:35;;;;;;;;;;;;;;;7.50;89.29;101806.91;5046084;28;19937;-79
2023/05/06 03:02:01;;;;;;;;;;;;;;;7.39;90.31;101806.63;5048300;28;19950;-78
2023/05/06 03:04:26;;;;;;;;;;;;;;;7.36;90.22;101801.72;5033165;28;19955;-77
2023/05/06 03:06:52;;;;;;;;;;;;;;;7.42;89.96;101799.22;5044455;28;19933;-76
2023/05/06 03:09:18;;;;;;;;;;;;;;;7.41;89.95;101798.41;5037327;28;20293;-78
2023/05/06 03:11:43;;;;;;;;;;;;;;;7.39;90.08;101800.50;5033820;28;20588;-78
2023/05/06 03:14:09;;;;;;;;;;;;;;;7.41;90.41;101800.25;5023392;28;19995;-79
2023/05/06 03:16:35;;;;;;;;;;;;;;;7.39;90.12;101793.31;5028162;28;19935;-77
2023/05/06 03:19:02;;;;;;;;;;;;;;;7.38;90.38;101799.69;5018919;28;20318;-78
2023/05/06 03:21:29;;;;;;;;;;;;;;;7.38;90.15;101799.69;5032230;28;20323;-78
2023/05/06 03:23:54;;;;;;;;;;;;;;;7.42;90.28;101791.22;5050485;28;19944;-77
2023/05/06 03:26:23;;;;;;;;;;;;;;;7.33;90.33;101796.84;5037453;28;19942;-78
2023/05/06 03:28:49;;;;;;;;;;;;;;;7.32;90.50;101795.22;5033519;28;19945;-79
2023/05/06 03:31:18;;;;;;;;;;;;;;;7.35;90.30;101793.97;5029694;28;19947;-77
2023/05/06 03:33:43;;;;;;;;;;;;;;;7.34;90.67;101790.47;5030986;28;19938;-77
2023/05/06 03:36:12;;;;;;;;;;;;;;;7.33;90.37;101780.06;5048988;28;19932;-78
2023/05/06 03:38:40;;;;;;;;;;;;;;;7.31;90.81;101780.25;5044545;28;20441;-79
2023/05/06 03:41:08;;;;;;;;;;;;;;;7.34;90.10;101777.16;5027675;28;19936;-78
2023/05/06 03:43:33;;;;;;;;;;;;;;;7.35;90.20;101773.47;5008445;28;20007;-77
2023/05/06 03:46:01;;;;;;;;;;;;;;;7.37;89.90;101770.56;5035620;28;20295;-78
2023/05/06 03:48:28;;;;;;;;;;;;;;;7.38;89.35;101783.69;5042180;28;20314;-77
2023/05/06 03:50:54;;;;;;;;;;;;;;;7.41;89.83;101768.28;5015008;28;20018;-77
2023/05/06 03:53:20;;;;;;;;;;;;;;;7.36;89.63;101779.59;5005307;28;20026;-78
2023/05/06 03:55:48;;;;;;;;;;;;;;;7.33;89.82;101775.53;5036587;28;19930;-77
2023/05/06 03:58:14;;;;;;;;;;;;;;;7.41;89.32;101773.59;5010614;28;20464;-78
2023/05/06 04:00:42;;;;;;;;;;;;;;;7.46;89.12;101758.59;5016083;28;20003;-79
2023/05/06 04:03:08;;;;;;;;;;;;;;;7.37;89.72;101760.72;5036053;28;19975;-78
2023/05/06 04:05:44;;;;;;;;;;;;;;;7.35;90.22;101770.78;5030168;28;19934;-78
2023/05/06 04:08:11;;;;;;;;;;;;;;;7.36;90.06;101775.06;5018809;28;20059;-78
2023/05/06 04:10:38;;;;;;;;;;;;;;;7.35;89.89;101773.47;5022308;28;19923;-78
2023/05/06 04:13:08;;;;;;;;;;;;;;;7.34;90.13;101777.16;5019776;28;20301;-78
2023/05/06 04:15:40;;;;;;;;;;;;;;;7.33;90.42;101780.88;5054066;28;20037;-78
2023/05/06 04:18:09;;;;;;;;;;;;;;;7.27;90.24;101784.41;5031635;28;20063;-78
2023/05/06 04:20:38;;;;;;;;;;;;;;;7.28;90.01;101788.72;5037590;28;19935;-78
2023/05/06 04:23:03;;;;;;;;;;;;;;;7.26;90.41;101785.47;5032714;28;19948;-78
2023/05/06 04:25:29;;;;;;;;;;;;;;;7.37;90.17;101784.69;5032675;28;19932;-78
2023/05/06 04:27:55;;;;;;;;;;;;;;;7.43;90.08;101784.84;5034912;28;19955;-79
2023/05/06 04:30:21;;;;;;;;;;;;;;;7.35;89.61;101786.78;5045633;28;20274;-78
2023/05/06 04:32:48;;;;;;;;;;;;;;;7.41;89.91;101793.06;5025768;28;19928;-78
2023/05/06 04:35:15;;;;;;;;;;;;;;;7.37;89.69;101791.88;5017367;28;19943;-78
2023/05/06 04:37:42;;;;;;;;;;;;;;;7.33;89.92;101791.53;5022909;28;19961;-77
2023/05/06 04:40:17;;;;;;;;;;;;;;;7.31;90.60;101798.09;5023977;28;19937;-76
2023/05/06 04:42:46;;;;;;;;;;;;;;;7.32;90.60;101797.91;5021559;28;19934;-77
2023/05/06 04:45:17;;;;;;;;;;;;;;;7.36;90.14;101801.72;5037368;28;19937;-77
2023/05/06 04:47:46;;;;;;;;;;;;;;;7.34;90.12;101805.66;5025931;28;20336;-78
2023/05/06 04:50:12;;;;;;;;;;;;;;;7.45;90.14;101817.41;5015134;28;19952;-77
2023/05/06 04:52:38;;;;;;;;;;;;;;;7.53;88.81;101823.28;5038519;28;19928;-77
2023/05/06 04:55:04;;;;;;;;;;;;;;;7.50;88.38;101821.03;5025668;28;19931;-77
2023/05/06 04:57:35;;;;;;;;;;;;;;;7.47;89.27;101824.16;5018096;28;19953;-77
2023/05/06 05:00:02;;;;;;;;;;;;;;;7.45;89.10;101825.41;5038957;28;20317;-78
2023/05/06 05:02:30;;;;;;;;;;;;;;;7.46;88.83;101829.72;5052694;28;19982;-77
2023/05/06 05:04:55;;;;;;;;;;;;;;;7.55;88.68;101828.38;5038315;28;19994;-78
2023/05/06 05:07:21;;;;;;;;;;;;;;;7.54;89.00;101829.44;5049663;28;19959;-77
2023/05/06 05:09:47;;;;;;;;;;;;;;;7.46;89.28;101827.06;5038711;28;19935;-77
2023/05/06 05:12:13;;;;;;;;;;;;;;;7.52;89.60;101831.47;5042695;28;19940;-77
2023/05/06 05:14:42;;;;;;;;;;;;;;;7.51;89.14;101830.66;5029889;28;19930;-77
2023/05/06 05:17:10;;;;;;;;;;;;;;;7.58;88.38;101830.59;5044194;28;19988;-77
2023/05/06 05:19:37;;;;;;;;;;;;;;;7.63;88.50;101828.91;5049285;28;19932;-77
2023/05/06 05:22:02;;;;;;;;;;;;;;;7.62;89.06;101831.78;5009588;28;20039;-77
2023/05/06 05:24:31;;;;;;;;;;;;;;;7.60;88.44;101828.53;5032895;28;20417;-77
2023/05/06 05:26:56;;;;;;;;;;;;;;;7.69;88.57;101827.19;5045808;28;19944;-76
2023/05/06 05:29:23;;;;;;;;;;;;;;;7.72;88.49;101826.72;5032684;28;19949;-78
2023/05/06 05:31:49;;;;;;;;;;;;;;;7.82;88.50;101831.56;5058088;28;19931;-77
2023/05/06 05:34:14;;;;;;;;;;;;;;;8.00;87.84;101833.38;5022659;28;20000;-77
2023/05/06 05:36:41;;;;;;;;;;;;;;;7.75;87.79;101841.50;5034697;28;19948;-78
2023/05/06 05:39:09;;;;;;;;;;;;;;;7.78;88.09;101844.50;5038428;28;19958;-77
2023/05/06 05:41:41;;;;;;;;;;;;;;;7.76;88.80;101843.91;5043420;28;20016;-76
2023/05/06 05:44:07;;;;;;;;;;;;;;;7.79;88.45;101837.31;5038991;28;19940;-78
2023/05/06 05:46:33;;;;;;;;;;;;;;;7.84;88.00;101846.28;5014592;28;19934;-76
2023/05/06 05:49:01;;;;;;;;;;;;;;;7.77;88.19;101853.53;5032596;28;19978;-77
2023/05/06 05:51:27;;;;;;;;;;;;;;;7.81;88.00;101856.59;5019877;28;20679;-77
2023/05/06 05:53:55;;;;;;;;;;;;;;;7.81;87.90;101856.59;5051603;28;19936;-76
2023/05/06 05:56:23;;;;;;;;;;;;;;;7.82;88.24;101853.69;5014655;28;19983;-75
2023/05/06 05:58:49;;;;;;;;;;;;;;;7.90;88.00;101849.91;5020238;28;20416;-77
2023/05/06 06:01:15;;;;;;;;;;;;;;;7.97;88.21;101857.81;5029871;28;19994;-77
2023/05/06 06:03:41;;;;;;;;;;;;;;;7.97;87.78;101857.81;5036548;28;19935;-76
2023/05/06 06:06:07;;;;;;;;;;;;;;;7.99;87.70;101859.22;5035956;28;19935;-78
2023/05/06 06:08:32;;;;;;;;;;;;;;;8.01;87.10;101861.69;5025748;28;19946;-77
2023/05/06 06:10:58;;;;;;;;;;;;;;;8.16;87.15;101862.09;5013921;28;19931;-76
2023/05/06 06:13:30;;;;;;;;;;;;;;;7.99;87.46;101866.41;5020252;28;19932;-77
2023/05/06 06:15:57;;;;;;;;;;;;;;;8.11;86.75;101853.94;5036014;28;19944;-76
2023/05/06 06:18:23;;;;;;;;;;;;;;;8.05;87.20;101857.50;5030044;28;19951;-77
2023/05/06 06:20:49;;;;;;;;;;;;;;;8.15;87.56;101865.81;5038062;28;20017;-77
2023/05/06 06:23:15;;;;;;;;;;;;;;;8.08;88.11;101854.41;5032626;28;19943;-77
2023/05/06 06:25:40;;;;;;;;;;;;;;;8.08;87.47;101862.41;5031265;28;19929;-77
2023/05/06 06:28:06;;;;;;;;;;;;;;;8.08;87.27;101867.75;5032907;28;19966;-77
2023/05/06 06:30:32;;;;;;;;;;;;;;;8.12;87.21;101858.22;5036589;28;19944;-78
2023/05/06 06:32:58;;;;;;;;;;;;;;;8.15;86.39;101861.28;5037636;28;19943;-77
2023/05/06 06:35:25;;;;;;;;;;;;;;;8.08;86.00;101857.06;5046361;28;20458;-77
2023/05/06 06:37:51;;;;;;;;;;;;;;;8.16;86.68;101854.09;5038388;28;19984;-77
2023/05/06 06:40:17;;;;;;;;;;;;;;;8.19;86.16;101858.97;5030671;28;19935;-75
2023/05/06 06:42:42;;;;;;;;;;;;;;;8.25;86.35;101863.41;5036510;28;19975;-75
2023/05/06 06:45:27;;;;;;;;;;;;;;;8.25;86.06;101860.72;5047871;28;19973;-75
2023/05/06 06:47:52;;;;;;;;;;;;;;;8.33;85.88;101865.78;5036864;28;19995;-75
2023/05/06 06:50:18;;;;;;;;;;;;;;;8.34;85.66;101866.56;5029554;28;19955;-76
2023/05/06 06:52:44;;;;;;;;;;;;;;;8.37;85.87;101871.47;5035566;28;19936;-73
2023/05/06 06:55:10;;;;;;;;;;;;;;;8.51;85.82;101869.44;5019768;28;20419;-77
2023/05/06 06:57:36;;;;;;;;;;;;;;;8.60;85.47;101863.56;5030330;28;20052;-76
2023/05/06 07:00:03;;;;;;;;;;;;;;;8.63;85.04;101872.94;5053002;28;19980;-75
2023/05/06 07:02:28;;;;;;;;;;;;;;;8.64;84.50;101875.38;5033566;28;19953;-76
2023/05/06 07:04:54;;;;;;;;;;;;;;;8.73;84.67;101882.00;5039205;28;19969;-74
2023/05/06 07:07:19;;;;;;;;;;;;;;;8.83;83.95;101881.47;5035838;28;20558;-75
2023/05/06 07:09:45;;;;;;;;;;;;;;;8.73;84.53;101878.53;5030200;28;20030;-75
2023/05/06 07:12:10;;;;;;;;;;;;;;;8.53;84.79;101875.34;5027127;28;20373;-75
2023/05/06 07:14:36;;;;;;;;;;;;;;;8.37;85.09;101888.31;5030250;28;20034;-79
2023/05/06 07:17:02;;;;;;;;;;;;;;;8.50;84.96;101886.50;5041733;28;19947;-77
2023/05/06 07:19:28;;;;;;;;;;;;;;;8.47;85.07;101893.13;5013765;28;19953;-76
2023/05/06 07:21:53;;;;;;;;;;;;;;;8.43;85.40;101882.06;5036773;28;20006;-78
2023/05/06 07:24:19;;;;;;;;;;;;;;;8.40;84.92;101887.88;5033996;28;19943;-76
2023/05/06 07:26:45;;;;;;;;;;;;;;;8.34;85.11;101880.75;5019243;28;20364;-76
2023/05/06 07:29:11;;;;;;;;;;;;;;;8.58;85.29;101878.16;5024762;28;19951;-74
2023/05/06 07:31:37;;;;;;;;;;;;;;;8.62;84.48;101882.00;5035603;28;19940;-75
2023/05/06 07:34:02;;;;;;;;;;;;;;;8.64;84.53;101877.25;5030929;28;19940;-76
2023/05/06 07:36:29;;;;;;;;;;;;;;;8.60;84.28;101879.56;5029943;28;19938;-73
2023/05/06 07:38:55;;;;;;;;;;;;;;;8.66;84.55;101886.66;4998917;28;19983;-73
2023/05/06 07:41:21;;;;;;;;;;;;;;;8.56;85.21;101891.75;5041178;28;19996;-76
2023/05/06 07:43:46;;;;;;;;;;;;;;;8.58;84.81;101895.00;5032698;28;19970;-76
2023/05/06 07:46:12;;;;;;;;;;;;;;;8.59;84.45;101891.28;5029753;28;20408;-76
2023/05/06 07:48:38;;;;;;;;;;;;;;;8.84;84.26;101893.78;5032471;28;19955;-76
2023/05/06 07:51:03;;;;;;;;;;;;;;;8.80;84.40;101895.25;5022597;28;20419;-78
2023/05/06 07:53:29;;;;;;;;;;;;;;;8.74;83.91;101893.53;5048232;28;20126;-77
2023/05/06 07:56:00;;;;;;;;;;;;;;;8.61;84.07;101889.22;5045853;28;20360;-78
2023/05/06 07:58:28;;;;;;;;;;;;;;;8.57;84.68;101895.22;5039511;28;19995;-76
2023/05/06 08:00:54;;;;;;;;;;;;;;;8.74;84.44;101898.88;5036113;28;19949;-78
2023/05/06 08:03:19;;;;;;;;;;;;;;;8.72;84.56;101900.94;5021056;28;20353;-77
2023/05/06 08:05:45;;;;;;;;;;;;;;;8.78;84.32;101913.38;5042443;28;20508;-77
2023/05/06 08:08:11;;;;;;;;;;;;;;;8.71;84.09;101921.50;5038148;28;19960;-75
2023/05/06 08:10:36;;;;;;;;;;;;;;;8.82;84.11;101911.91;5041690;28;19940;-76
2023/05/06 08:13:02;;;;;;;;;;;;;;;8.76;83.78;101912.81;5040244;28;19938;-78
2023/05/06 08:15:28;;;;;;;;;;;;;;;8.78;84.26;101926.75;5056483;28;20020;-77
2023/05/06 08:17:54;;;;;;;;;;;;;;;8.96;84.34;101918.66;5024074;28;19959;-76
2023/05/06 08:20:20;;;;;;;;;;;;;;;8.87;84.28;101914.69;5042260;28;19939;-76
2023/05/06 08:22:45;;;;;;;;;;;;;;;8.98;84.07;101921.09;5037285;28;19955;-77
2023/05/06 08:25:11;;;;;;;;;;;;;;;8.97;83.93;101920.28;5037016;28;19938;-77
2023/05/06 08:27:37;;;;;;;;;;;;;;;8.89;84.27;101923.28;5031475;28;19944;-77
2023/05/06 08:30:03;;;;;;;;;;;;;;;8.67;84.34;101924.84;5049904;28;20026;-77
2023/05/06 08:32:29;;;;;;;;;;;;;;;8.93;83.83;101924.44;5022743;28;19969;-76
2023/05/06 08:34:55;;;;;;;;;;;;;;;9.13;82.77;101934.81;5050907;28;19935;-77
2023/05/06 08:37:20;;;;;;;;;;;;;;;9.15;82.89;101924.75;5035050;28;19986;-76
2023/05/06 08:39:47;;;;;;;;;;;;;;;9.15;83.51;101931.94;5044590;28;20169;-76
2023/05/06 08:42:13;;;;;;;;;;;;;;;9.31;81.62;101928.56;5042696;28;20360;-76
2023/05/06 08:44:39;;;;;;;;;;;;;;;9.18;82.28;101932.28;5037811;28;19930;-77
2023/05/06 08:47:04;;;;;;;;;;;;;;;9.02;82.83;101928.44;5028590;28;19973;-76
2023/05/06 08:49:30;;;;;;;;;;;;;;;9.13;82.50;101928.66;5051977;28;19948;-76
2023/05/06 08:51:56;;;;;;;;;;;;;;;9.19;82.34;101933.91;5022080;28;20026;-75
2023/05/06 08:54:24;;;;;;;;;;;;;;;9.35;81.53;101944.94;5034359;28;19931;-77
2023/05/06 08:56:55;;;;;;;;;;;;;;;9.40;81.23;101943.22;5029413;28;19958;-77
2023/05/06 08:59:22;;;;;;;;;;;;;;;9.33;81.83;101945.19;5038940;28;20368;-76
2023/05/06 09:01:48;;;;;;;;;;;;;;;9.50;81.92;101934.63;5049236;28;20030;-75
2023/05/06 09:04:15;;;;;;;;;;;;;;;9.33;81.95;101939.03;5025504;28;20441;-76
2023/05/06 09:06:40;;;;;;;;;;;;;;;9.43;82.38;101945.44;5049627;28;19970;-76
2023/05/06 09:09:06;;;;;;;;;;;;;;;9.52;80.88;101938.69;5014172;28;19984;-76
2023/05/06 09:11:32;;;;;;;;;;;;;;;9.55;81.69;101943.59;5020937;28;19932;-77
2023/05/06 09:14:14;;;;;;;;;;;;;;;9.65;80.71;101944.84;5033287;28;20027;-75
2023/05/06 09:16:44;;;;;;;;;;;;;;;9.54;81.60;101943.78;5029142;28;19940;-76
2023/05/06 09:19:10;;;;;;;;;;;;;;;9.56;81.17;101945.19;5027672;28;19949;-75
2023/05/06 09:21:37;;;;;;;;;;;;;;;9.44;81.55;101952.41;5032124;28;19951;-76
2023/05/06 09:24:04;;;;;;;;;;;;;;;9.61;79.90;101952.50;5033580;28;20027;-75
2023/05/06 09:26:31;;;;;;;;;;;;;;;9.31;81.65;101952.63;5027352;28;19933;-76
2023/05/06 09:28:57;;;;;;;;;;;;;;;9.51;81.05;101952.28;5016613;28;19955;-76
2023/05/06 09:31:24;;;;;;;;;;;;;;;9.24;82.42;101947.41;5043641;28;20384;-76
2023/05/06 09:33:50;;;;;;;;;;;;;;;9.29;81.61;101957.41;5040954;28;19940;-76
2023/05/06 09:36:16;;;;;;;;;;;;;;;9.44;81.55;101960.44;5030025;28;19944;-77
2023/05/06 09:38:41;;;;;;;;;;;;;;;9.22;81.95;101954.84;5023618;28;19946;-76
2023/05/06 09:41:08;;;;;;;;;;;;;;;9.32;81.50;101953.44;5032144;28;19967;-77
2023/05/06 09:43:36;;;;;;;;;;;;;;;9.57;81.32;101952.19;5024988;28;20418;-77
2023/05/06 09:46:04;;;;;;;;;;;;;;;9.60;81.20;101956.22;5030637;28;19961;-78
2023/05/06 09:48:30;;;;;;;;;;;;;;;9.54;81.23;101957.97;5026114;28;19951;-77
2023/05/06 09:50:56;;;;;;;;;;;;;;;9.71;80.35;101959.97;5027427;28;19939;-77
2023/05/06 09:53:22;;;;;;;;;;;;;;;9.61;80.91;101957.03;5025615;28;19937;-77
2023/05/06 09:55:48;;;;;;;;;;;;;;;9.98;79.54;101962.94;5033634;28;19930;-76
2023/05/06 09:58:15;;;;;;;;;;;;;;;9.71;80.14;101963.44;5025698;28;19951;-80
2023/05/06 10:00:42;;;;;;;;;;;;;;;9.97;78.75;101967.50;5013399;28;20392;-77
2023/05/06 10:03:08;;;;;;;;;;;;;;;9.62;80.26;101969.38;5027059;28;19941;-76
2023/05/06 10:05:35;;;;;;;;;;;;;;;9.89;80.20;101975.88;5008102;28;20371;-76
2023/05/06 10:08:03;;;;;;;;;;;;;;;9.96;80.06;101968.53;5033831;28;20425;-76
2023/05/06 10:10:28;;;;;;;;;;;;;;;10.10;79.55;101966.44;5028629;28;19937;-76
2023/05/06 10:12:54;;;;;;;;;;;;;;;9.97;78.92;101967.50;5031113;28;19946;-77
2023/05/06 10:15:20;;;;;;;;;;;;;;;9.87;79.29;101967.25;5026276;28;19937;-78
2023/05/06 10:17:47;;;;;;;;;;;;;;;9.78;79.83;101966.00;5026410;28;19959;-77
2023/05/06 10:20:13;;;;;;;;;;;;;;;10.09;79.11;101973.66;5015025;28;19943;-76
2023/05/06 10:22:51;;;;;;;;;;;;;;;10.22;78.32;101974.41;5043884;28;19993;-77
2023/05/06 10:25:22;;;;;;;;;;;;;;;10.46;78.97;101973.31;5028029;28;19986;-77
2023/05/06 10:27:49;;;;;;;;;;;;;;;10.10;78.05;101974.47;5020600;28;19950;-77
2023/05/06 10:30:15;;;;;;;;;;;;;;;10.05;78.83;101975.16;5029934;28;19981;-76
2023/05/06 10:32:42;;;;;;;;;;;;;;;9.63;80.34;101981.72;5035141;28;19955;-76
2023/05/06 10:35:11;;;;;;;;;;;;;;;10.08;79.44;101973.84;5033212;28;20397;-76
2023/05/06 10:37:38;;;;;;;;;;;;;;;10.02;79.05;101975.59;5018974;28;20003;-76
2023/05/06 10:40:04;;;;;;;;;;;;;;;9.92;78.47;101978.09;5037060;28;19961;-77
2023/05/06 10:42:34;;;;;;;;;;;;;;;9.83;79.04;101977.63;5034046;28;19954;-77
2023/05/06 10:45:03;;;;;;;;;;;;;;;9.75;80.47;101974.47;5035161;28;19940;-77
2023/05/06 10:47:49;;;;;;;;;;;;;;;10.26;79.53;101975.59;5022461;28;19944;-76
2023/05/06 10:50:20;;;;;;;;;;;;;;;10.31;77.76;101965.81;5030078;28;19998;-75
2023/05/06 10:52:46;;;;;;;;;;;;;;;10.09;79.18;101976.31;5039742;28;19939;-75
2023/05/06 10:55:32;;;;;;;;;;;;;;;9.82;79.79;101976.00;5031219;28;20402;-76
2023/05/06 10:58:02;;;;;;;;;;;;;;;9.96;80.07;101979.25;5025860;28;19943;-77
2023/05/06 11:00:31;;;;;;;;;;;;;;;9.87;79.88;101980.63;5025893;28;19930;-76
2023/05/06 11:03:00;;;;;;;;;;;;;;;10.06;80.03;101984.81;5011914;28;19952;-77
2023/05/06 11:05:26;;;;;;;;;;;;;;;10.15;78.66;101979.88;5027286;28;19957;-77
2023/05/06 11:07:54;;;;;;;;;;;;;;;10.11;78.73;101982.25;5011584;28;19954;-77
2023/05/06 11:10:32;;;;;;;;;;;;;;;10.05;79.26;101975.16;5012493;28;19947;-77
2023/05/06 11:13:16;;;;;;;;;;;;;;;9.82;80.00;101970.66;5033175;28;19972;-75
2023/05/06 11:15:45;;;;;;;;;;;;;;;10.00;79.88;101983.06;5050767;28;20585;-76
2023/05/06 11:18:26;;;;;;;;;;;;;;;10.06;78.96;101987.47;5036177;28;20446;-78
2023/05/06 11:20:59;;;;;;;;;;;;;;;9.96;79.18;101986.47;5045440;28;19932;-78
2023/05/06 11:23:41;;;;;;;;;;;;;;;9.77;79.73;101983.09;5038059;28;19933;-77
2023/05/06 11:26:10;;;;;;;;;;;;;;;9.64;80.62;101994.03;5036816;28;19947;-78
2023/05/06 11:28:36;;;;;;;;;;;;;;;9.65;80.74;101985.78;5017585;28;20348;-79
2023/05/06 11:31:01;;;;;;;;;;;;;;;9.63;80.65;101992.41;5034228;28;19942;-79
2023/05/06 11:33:32;;;;;;;;;;;;;;;9.63;80.79;101998.56;5031081;28;19935;-78
2023/05/06 11:36:02;;;;;;;;;;;;;;;9.71;80.45;101995.56;5026777;28;20579;-76
2023/05/06 11:38:48;;;;;;;;;;;;;;;9.94;80.04;101997.38;5030974;28;19951;-76
2023/05/06 11:41:14;;;;;;;;;;;;;;;9.68;80.81;102000.53;5022945;28;19982;-75
2023/05/06 11:43:44;;;;;;;;;;;;;;;9.76;80.63;102001.03;5028627;28;19935;-77
2023/05/06 11:46:10;;;;;;;;;;;;;;;9.85;80.25;102006.81;5043647;28;19988;-76
2023/05/06 11:48:36;;;;;;;;;;;;;;;9.96;79.96;101997.97;5046182;28;19980;-75
2023/05/06 11:51:01;;;;;;;;;;;;;;;10.07;79.33;102010.53;5043591;28;19933;-75
2023/05/06 11:53:28;;;;;;;;;;;;;;;9.75;79.82;102011.94;5043445;28;19931;-76
2023/05/06 11:55:54;;;;;;;;;;;;;;;9.64;80.42;102016.25;5043085;28;19929;-77
2023/05/06 11:58:29;;;;;;;;;;;;;;;9.68;80.27;102019.25;5028078;28;20341;-76
2023/05/06 12:00:55;;;;;;;;;;;;;;;9.69;80.66;102020.91;5014785;28;19931;-77
2023/05/06 12:03:21;;;;;;;;;;;;;;;9.64;80.43;102023.47;5024150;28;20095;-75
2023/05/06 12:05:48;;;;;;;;;;;;;;;9.53;81.33;102028.56;5049586;28;19938;-77
2023/05/06 12:08:22;;;;;;;;;;;;;;;9.62;81.29;102033.56;5029994;28;20039;-77
2023/05/06 12:10:48;;;;;;;;;;;;;;;9.64;80.43;102034.16;5038854;28;19944;-74
2023/05/06 12:13:16;;;;;;;;;;;;;;;9.43;81.58;102033.69;5023238;28;20325;-74
2023/05/06 12:15:42;;;;;;;;;;;;;;;9.48;81.08;102041.81;5027464;28;20307;-76
2023/05/06 12:18:07;;;;;;;;;;;;;;;9.26;81.32;102032.69;5025663;28;19924;-78
2023/05/06 12:20:33;;;;;;;;;;;;;;;9.60;81.50;102038.34;5025218;28;19931;-76
2023/05/06 12:23:06;;;;;;;;;;;;;;;9.58;81.26;102034.03;5030741;28;20431;-74
2023/05/06 12:25:31;;;;;;;;;;;;;;;9.56;81.08;102035.31;5008451;28;20137;-75
2023/05/06 12:27:57;;;;;;;;;;;;;;;9.54;81.20;102038.19;5032575;28;20585;-77
2023/05/06 12:30:30;;;;;;;;;;;;;;;9.79;80.76;102034.50;5023047;28;20044;-77
2023/05/06 12:32:57;;;;;;;;;;;;;;;9.91;79.89;102037.19;5045485;28;20472;-76
2023/05/06 12:35:26;;;;;;;;;;;;;;;9.76;79.77;102035.00;5019225;28;20446;-78
2023/05/06 12:37:52;;;;;;;;;;;;;;;9.87;79.31;102038.69;5026958;28;19962;-76
2023/05/06 12:40:17;;;;;;;;;;;;;;;9.80;79.74;102041.47;5033900;28;19939;-76
2023/05/06 12:42:43;;;;;;;;;;;;;;;9.88;79.19;102043.81;5031082;28;19946;-76
2023/05/06 12:45:12;;;;;;;;;;;;;;;9.70;79.82;102049.28;5028651;28;20382;-77
2023/05/06 12:47:39;;;;;;;;;;;;;;;9.92;79.57;102049.53;5026911;28;19931;-76